createdAt,value
2018-07-14T00:00:53.038Z,99.90
2018-07-14T00:03:21.427Z,99.90
2018-07-14T00:05:49.700Z,99.90
2018-07-14T00:08:18.020Z,99.90
2018-07-14T00:10:46.292Z,99.90
2018-07-14T00:13:14.534Z,99.90
2018-07-14T00:15:42.818Z,99.90
2018-07-14T00:18:11.103Z,99.90
2018-07-14T00:20:39.358Z,99.90
2018-07-14T00:23:07.730Z,99.90
2018-07-14T00:25:41.327Z,99.90
2018-07-14T00:28:10.429Z,99.90
2018-07-14T00:30:38.724Z,99.90
2018-07-14T00:33:07.053Z,99.90
2018-07-14T00:35:35.321Z,99.90
2018-07-14T00:38:03.592Z,99.90
2018-07-14T00:40:31.863Z,99.90
2018-07-14T00:43:00.157Z,99.90
2018-07-14T00:45:29.035Z,99.90
2018-07-14T00:47:57.328Z,99.90
2018-07-14T00:50:25.548Z,99.90
2018-07-14T00:52:53.860Z,99.90
2018-07-14T00:55:22.171Z,99.90
2018-07-14T00:57:50.471Z,99.90
2018-07-14T01:00:19.020Z,99.90
2018-07-14T01:02:47.657Z,99.90
2018-07-14T01:05:16.828Z,99.90
2018-07-14T01:07:45.435Z,99.90
2018-07-14T01:10:14.027Z,99.90
2018-07-14T01:12:42.701Z,99.90
2018-07-14T01:17:39.637Z,99.90
2018-07-14T01:20:08.318Z,99.90
2018-07-14T01:22:43.366Z,99.90
2018-07-14T01:25:12.111Z,99.90
2018-07-14T01:27:40.997Z,99.90
2018-07-14T01:30:09.783Z,99.90
2018-07-14T01:32:38.397Z,99.90
2018-07-14T01:35:07.621Z,99.90
2018-07-14T01:37:36.432Z,99.90
2018-07-14T01:40:05.098Z,99.90
2018-07-14T01:47:30.267Z,99.90
2018-07-14T01:49:58.873Z,99.90
2018-07-14T01:52:28.412Z,99.90
2018-07-14T01:57:25.006Z,99.90
2018-07-14T01:59:54.031Z,99.90
2018-07-14T02:02:22.271Z,99.90
2018-07-14T02:09:46.544Z,99.90
2018-07-14T02:12:14.805Z,99.90
2018-07-14T02:14:43.065Z,99.90
2018-07-14T02:17:11.334Z,99.90
2018-07-14T02:19:39.562Z,99.90
2018-07-14T02:22:07.858Z,99.90
2018-07-14T02:24:36.155Z,99.90
2018-07-14T02:27:04.436Z,99.90
2018-07-14T02:29:32.726Z,99.90
2018-07-14T02:32:01.001Z,99.90
2018-07-14T02:34:29.237Z,99.90
2018-07-14T02:39:25.540Z,99.90
2018-07-14T02:41:53.861Z,99.90
2018-07-14T02:44:22.140Z,99.90
2018-07-14T02:46:50.451Z,99.90
2018-07-14T02:49:18.732Z,99.90
2018-07-14T02:51:47.030Z,99.90
2018-07-14T02:54:15.303Z,99.90
2018-07-14T02:56:43.557Z,99.90
2018-07-14T02:59:11.838Z,99.90
2018-07-14T03:01:40.213Z,99.90
2018-07-14T03:04:08.460Z,99.90
2018-07-14T03:06:36.739Z,99.90
2018-07-14T03:09:06.268Z,99.90
2018-07-14T03:11:34.542Z,99.90
2018-07-14T03:14:02.961Z,99.90
2018-07-14T03:16:31.211Z,99.90
2018-07-14T03:18:59.454Z,99.90
2018-07-14T03:21:27.724Z,99.90
2018-07-14T03:23:56.027Z,99.90
2018-07-14T03:26:25.124Z,99.90
2018-07-14T03:28:53.380Z,99.90
2018-07-14T03:31:21.576Z,99.90
2018-07-14T03:33:49.851Z,99.90
2018-07-14T03:36:18.136Z,99.90
2018-07-14T03:38:46.426Z,99.90
2018-07-14T03:41:14.636Z,99.90
2018-07-14T03:43:42.918Z,99.90
2018-07-14T03:48:39.179Z,99.90
2018-07-14T03:51:07.605Z,99.90
2018-07-14T03:53:35.955Z,99.90
2018-07-14T03:56:04.528Z,99.90
2018-07-14T03:58:32.864Z,99.90
2018-07-14T04:01:01.138Z,99.90
2018-07-14T04:03:29.471Z,99.90
2018-07-14T04:05:57.772Z,99.90
2018-07-14T04:08:26.637Z,99.90
2018-07-14T04:10:54.892Z,99.90
2018-07-14T04:13:23.168Z,99.90
2018-07-14T04:15:51.448Z,99.90
2018-07-14T04:18:19.845Z,99.90
2018-07-14T04:20:48.097Z,99.90
2018-07-14T04:23:16.419Z,99.90
2018-07-14T04:25:45.599Z,99.90
2018-07-14T04:28:13.826Z,99.90
2018-07-14T04:30:42.120Z,99.90
2018-07-14T04:33:10.393Z,99.90
2018-07-14T04:35:38.698Z,99.90
2018-07-14T04:38:07.184Z,99.90
2018-07-14T04:40:35.419Z,99.90
2018-07-14T04:43:03.668Z,99.90
2018-07-14T04:45:31.880Z,99.90
2018-07-14T04:48:00.147Z,99.90
2018-07-14T04:50:28.566Z,99.90
2018-07-14T04:52:56.811Z,99.90
2018-07-14T04:55:25.092Z,99.90
2018-07-14T04:57:53.371Z,99.90
2018-07-14T05:00:21.640Z,99.90
2018-07-14T05:02:49.867Z,99.90
2018-07-14T05:05:18.128Z,99.90
2018-07-14T05:07:46.412Z,99.90
2018-07-14T05:10:14.671Z,99.90
2018-07-14T05:12:42.960Z,99.90
2018-07-14T05:15:11.317Z,99.90
2018-07-14T05:17:39.538Z,99.90
2018-07-14T05:20:08.180Z,99.90
2018-07-14T05:22:36.485Z,99.90
2018-07-14T05:25:04.775Z,99.90
2018-07-14T05:27:33.007Z,99.90
2018-07-14T05:30:01.239Z,99.90
2018-07-14T05:32:29.480Z,99.90
2018-07-14T05:34:57.734Z,99.90
2018-07-14T05:37:26.008Z,99.90
2018-07-14T05:39:54.303Z,99.90
2018-07-14T05:42:22.567Z,99.90
2018-07-14T05:44:50.827Z,99.90
2018-07-14T05:47:19.131Z,99.90
2018-07-14T05:49:47.501Z,99.90
2018-07-14T05:52:15.788Z,99.90
2018-07-14T05:54:44.043Z,99.90
2018-07-14T05:57:12.341Z,99.90
2018-07-14T05:59:40.613Z,99.90
2018-07-14T06:02:08.893Z,99.90
2018-07-14T06:04:37.170Z,99.90
2018-07-14T06:07:06.199Z,99.90
2018-07-14T06:12:02.479Z,99.90
2018-07-14T06:14:30.743Z,99.90
2018-07-14T06:16:58.989Z,99.90
2018-07-14T06:19:27.409Z,99.90
2018-07-14T06:21:55.735Z,99.90
2018-07-14T06:24:24.044Z,99.90
2018-07-14T06:26:52.416Z,99.90
2018-07-14T06:29:20.704Z,99.90
2018-07-14T06:31:48.953Z,99.90
2018-07-14T06:34:17.246Z,99.90
2018-07-14T06:36:49.216Z,99.90
2018-07-14T06:39:17.565Z,99.90
2018-07-14T06:41:45.862Z,99.90
2018-07-14T06:46:42.132Z,99.90
2018-07-14T06:49:10.375Z,99.90
2018-07-14T06:51:38.713Z,99.90
2018-07-14T06:54:07.012Z,99.90
2018-07-14T06:56:35.281Z,99.90
2018-07-14T06:59:03.590Z,99.90
2018-07-14T07:03:59.897Z,99.90
2018-07-14T07:06:28.118Z,99.90
2018-07-14T07:08:56.438Z,99.90
2018-07-14T07:11:24.703Z,99.90
2018-07-14T07:13:53.018Z,99.90
2018-07-14T07:16:21.732Z,99.40
2018-07-14T07:18:50.149Z,97.50
2018-07-14T07:21:18.480Z,96.70
2018-07-14T07:23:47.007Z,98.20
2018-07-14T07:26:15.322Z,97.00
2018-07-14T07:28:43.605Z,95.60
2018-07-14T07:31:11.838Z,96.10
2018-07-14T07:33:40.104Z,96.90
2018-07-14T07:36:08.354Z,95.00
2018-07-14T07:38:37.228Z,93.40
2018-07-14T07:41:05.466Z,91.50
2018-07-14T07:43:33.734Z,91.00
2018-07-14T07:46:02.010Z,92.10
2018-07-14T07:48:30.296Z,91.60
2018-07-14T07:50:59.434Z,92.90
2018-07-14T07:53:27.699Z,94.00
2018-07-14T07:55:56.123Z,90.80
2018-07-14T07:58:24.436Z,90.20
2018-07-14T08:00:52.675Z,86.40
2018-07-14T08:03:20.980Z,81.60
2018-07-14T08:05:49.305Z,79.60
2018-07-14T08:08:17.583Z,80.50
2018-07-14T08:10:45.806Z,86.30
2018-07-14T08:13:14.067Z,87.60
2018-07-14T08:15:42.290Z,90.20
2018-07-14T08:20:38.602Z,85.00
2018-07-14T08:23:07.448Z,77.90
2018-07-14T08:25:35.670Z,76.40
2018-07-14T08:28:03.912Z,74.40
2018-07-14T08:30:32.338Z,72.00
2018-07-14T08:33:00.602Z,72.90
2018-07-14T08:35:28.843Z,72.20
2018-07-14T08:37:57.198Z,73.40
2018-07-14T08:40:25.403Z,70.90
2018-07-14T08:42:53.719Z,74.70
2018-07-14T08:45:21.975Z,71.10
2018-07-14T08:47:50.304Z,66.80
2018-07-14T08:52:46.602Z,68.50
2018-07-14T08:55:14.860Z,65.80
2018-07-14T08:57:43.135Z,65.90
2018-07-14T09:00:11.449Z,65.80
2018-07-14T09:02:39.849Z,66.30
2018-07-14T09:05:08.291Z,67.30
2018-07-14T09:07:36.822Z,64.90
2018-07-14T09:10:05.515Z,63.70
2018-07-14T09:12:36.729Z,62.00
2018-07-14T09:15:05.172Z,58.60
2018-07-14T09:17:33.592Z,56.60
2018-07-14T09:20:01.932Z,55.20
2018-07-14T09:22:30.365Z,54.20
2018-07-14T09:24:58.685Z,55.00
2018-07-14T09:27:27.117Z,53.80
2018-07-14T09:29:55.518Z,55.40
2018-07-14T09:32:23.823Z,52.50
2018-07-14T09:34:52.088Z,54.50
2018-07-14T09:37:20.370Z,53.30
2018-07-14T09:39:48.646Z,51.60
2018-07-14T09:42:16.928Z,52.90
2018-07-14T09:44:45.175Z,52.00
2018-07-14T09:47:14.083Z,51.50
2018-07-14T09:49:42.314Z,51.70
2018-07-14T09:52:11.107Z,53.40
2018-07-14T09:54:39.339Z,51.90
2018-07-14T09:57:07.908Z,53.00
2018-07-14T09:59:36.191Z,54.10
2018-07-14T10:02:04.556Z,51.80
2018-07-14T10:04:32.808Z,50.90
2018-07-14T10:07:01.117Z,51.20
2018-07-14T10:09:29.383Z,52.90
2018-07-14T10:11:57.732Z,52.30
2018-07-14T10:19:22.578Z,49.00
2018-07-14T10:21:51.120Z,46.60
2018-07-14T10:24:19.389Z,44.80
2018-07-14T10:26:47.669Z,45.10
2018-07-14T10:29:15.934Z,44.80
2018-07-14T10:31:44.233Z,45.50
2018-07-14T10:36:40.476Z,44.30
2018-07-14T10:39:09.331Z,43.80
2018-07-14T10:41:37.634Z,45.00
2018-07-14T10:44:05.916Z,42.80
2018-07-14T10:46:36.308Z,44.10
2018-07-14T10:49:04.547Z,43.60
2018-07-14T10:51:32.859Z,43.80
2018-07-14T10:54:01.717Z,44.60
2018-07-14T10:56:30.043Z,42.60
2018-07-14T10:58:58.817Z,40.80
2018-07-14T11:01:27.094Z,42.50
2018-07-14T11:03:55.346Z,44.30
2018-07-14T11:06:23.616Z,43.10
2018-07-14T11:08:52.068Z,43.50
2018-07-14T11:11:20.377Z,45.60
2018-07-14T11:13:50.029Z,44.40
2018-07-14T11:16:18.339Z,45.80
2018-07-14T11:21:14.600Z,43.00
2018-07-14T11:23:42.919Z,39.20
2018-07-14T11:26:11.227Z,39.70
2018-07-14T11:28:39.493Z,39.00
2018-07-14T11:31:07.758Z,40.90
2018-07-14T11:33:35.996Z,42.90
2018-07-14T11:36:04.406Z,43.20
2018-07-14T11:38:32.662Z,42.60
2018-07-14T11:41:00.948Z,41.90
2018-07-14T11:43:29.192Z,38.30
2018-07-14T11:45:57.502Z,37.80
2018-07-14T11:48:25.733Z,42.80
2018-07-14T11:50:54.079Z,43.40
2018-07-14T11:53:22.350Z,43.30
2018-07-14T11:55:50.584Z,44.10
2018-07-14T11:58:19.845Z,41.60
2018-07-14T12:00:48.307Z,43.00
2018-07-14T12:03:16.587Z,41.30
2018-07-14T12:05:44.900Z,42.90
2018-07-14T12:08:13.164Z,44.20
2018-07-14T12:10:41.513Z,46.90
2018-07-14T12:13:10.018Z,46.10
2018-07-14T12:15:38.323Z,45.10
2018-07-14T12:18:06.568Z,43.40
2018-07-14T12:23:02.946Z,44.80
2018-07-14T12:25:31.187Z,45.00
2018-07-14T12:27:59.615Z,44.40
2018-07-14T12:30:27.972Z,44.60
2018-07-14T12:32:56.287Z,42.80
2018-07-14T12:35:24.646Z,42.60
2018-07-14T12:37:52.922Z,41.90
2018-07-14T12:40:21.224Z,40.50
2018-07-14T12:42:49.540Z,42.10
2018-07-14T12:45:17.851Z,44.50
2018-07-14T12:47:46.175Z,45.60
2018-07-14T12:50:14.494Z,46.00
2018-07-14T12:52:42.771Z,46.80
2018-07-14T12:55:10.955Z,44.80
2018-07-14T12:57:39.227Z,45.50
2018-07-14T13:00:08.012Z,44.80
2018-07-14T13:02:36.247Z,43.90
2018-07-14T13:05:04.570Z,39.30
2018-07-14T13:07:39.385Z,42.70
2018-07-14T13:10:08.639Z,46.40
2018-07-14T13:12:37.289Z,48.30
2018-07-14T13:15:05.848Z,49.50
2018-07-14T13:17:34.116Z,50.70
2018-07-14T13:20:02.639Z,49.50
2018-07-14T13:22:31.129Z,51.10
2018-07-14T13:24:59.462Z,51.30
2018-07-14T13:27:27.800Z,52.60
2018-07-14T13:29:56.431Z,50.00
2018-07-14T13:32:24.938Z,50.20
2018-07-14T13:34:54.300Z,49.80
2018-07-14T13:37:23.162Z,50.80
2018-07-14T13:42:19.588Z,50.50
2018-07-14T13:44:47.856Z,51.80
2018-07-14T13:47:16.252Z,52.70
2018-07-14T13:49:44.863Z,51.40
2018-07-14T13:52:13.164Z,53.30
2018-07-14T13:54:41.487Z,51.60
2018-07-14T13:57:09.758Z,54.10
2018-07-14T13:59:40.018Z,53.20
2018-07-14T14:04:36.297Z,53.60
2018-07-14T14:07:04.712Z,54.40
2018-07-14T14:09:33.039Z,54.70
2018-07-14T14:12:01.316Z,54.70
2018-07-14T14:14:29.635Z,54.10
2018-07-14T14:16:59.264Z,52.90
2018-07-14T14:19:27.906Z,53.80
2018-07-14T14:21:56.224Z,53.60
2018-07-14T14:24:24.485Z,52.30
2018-07-14T14:29:21.362Z,53.20
2018-07-14T14:31:49.588Z,53.70
2018-07-14T14:34:18.084Z,53.50
2018-07-14T14:36:46.643Z,54.50
2018-07-14T14:39:15.923Z,54.10
2018-07-14T14:41:44.334Z,55.00
2018-07-14T14:44:12.696Z,55.90
2018-07-14T14:46:40.942Z,54.60
2018-07-14T14:49:09.279Z,55.60
2018-07-14T14:51:37.540Z,54.60
2018-07-14T14:54:05.771Z,54.80
2018-07-14T14:56:34.055Z,55.00
2018-07-14T14:59:02.291Z,56.50
2018-07-14T15:01:30.592Z,55.10
2018-07-14T15:03:58.881Z,53.90
2018-07-14T15:06:27.172Z,55.60
2018-07-14T15:08:56.451Z,55.20
2018-07-14T15:11:24.740Z,54.40
2018-07-14T15:16:21.014Z,53.60
2018-07-14T15:21:17.280Z,54.50
2018-07-14T15:23:45.520Z,54.60
2018-07-14T15:26:13.826Z,55.00
2018-07-14T15:31:10.396Z,54.50
2018-07-14T15:33:38.699Z,55.50
2018-07-14T15:36:07.045Z,55.30
2018-07-14T15:38:35.320Z,55.30
2018-07-14T15:41:03.603Z,53.80
2018-07-14T15:43:31.920Z,54.30
2018-07-14T15:46:00.240Z,53.80
2018-07-14T15:48:28.514Z,54.30
2018-07-14T15:50:56.785Z,54.00
2018-07-14T15:53:25.105Z,53.40
2018-07-14T15:55:53.379Z,52.30
2018-07-14T15:58:21.641Z,53.40
2018-07-14T16:00:49.868Z,53.30
2018-07-14T16:03:18.142Z,52.50
2018-07-14T16:05:46.755Z,51.60
2018-07-14T16:08:15.056Z,52.70
2018-07-14T16:10:43.363Z,52.90
2018-07-14T16:15:39.646Z,53.60
2018-07-14T16:18:08.426Z,51.30
2018-07-14T16:20:36.746Z,51.40
2018-07-14T16:23:05.866Z,51.50
2018-07-14T16:25:35.397Z,53.60
2018-07-14T16:28:04.403Z,53.40
2018-07-14T16:30:33.559Z,53.10
2018-07-14T16:33:01.931Z,52.30
2018-07-14T16:35:31.315Z,52.50
2018-07-14T16:37:59.708Z,52.70
2018-07-14T16:40:27.982Z,53.40
2018-07-14T16:42:58.276Z,53.30
2018-07-14T16:45:26.550Z,52.80
2018-07-14T16:47:54.819Z,53.90
2018-07-14T16:50:23.094Z,53.40
2018-07-14T16:52:51.443Z,52.70
2018-07-14T16:55:19.709Z,52.90
2018-07-14T16:57:48.118Z,53.50
2018-07-14T17:00:16.375Z,52.30
2018-07-14T17:02:44.670Z,51.90
2018-07-14T17:05:12.960Z,52.70
2018-07-14T17:07:41.324Z,52.80
2018-07-14T17:10:10.317Z,54.90
2018-07-14T17:12:38.576Z,54.80
2018-07-14T17:15:06.848Z,54.10
2018-07-14T17:17:35.144Z,52.50
2018-07-14T17:20:03.462Z,54.00
2018-07-14T17:22:31.725Z,52.20
2018-07-14T17:25:00.176Z,52.30
2018-07-14T17:27:28.419Z,53.20
2018-07-14T17:32:24.696Z,50.10
2018-07-14T17:34:52.943Z,51.80
2018-07-14T17:39:49.200Z,52.20
2018-07-14T17:42:17.504Z,53.10
2018-07-14T17:44:45.780Z,53.60
2018-07-14T17:47:14.021Z,53.60
2018-07-14T17:52:10.919Z,54.50
2018-07-14T17:54:39.508Z,54.80
2018-07-14T17:57:07.797Z,53.90
2018-07-14T17:59:36.249Z,55.20
2018-07-14T18:02:04.640Z,55.40
2018-07-14T18:04:32.944Z,54.10
2018-07-14T18:07:01.186Z,54.60
2018-07-14T18:09:29.456Z,54.90
2018-07-14T18:11:57.738Z,54.80
2018-07-14T18:14:26.003Z,56.40
2018-07-14T18:16:54.274Z,55.00
2018-07-14T18:19:22.556Z,55.30
2018-07-14T18:21:50.857Z,55.20
2018-07-14T18:24:19.100Z,55.60
2018-07-14T18:26:47.394Z,55.40
2018-07-14T18:29:16.380Z,56.00
2018-07-14T18:31:44.690Z,55.70
2018-07-14T18:34:12.944Z,56.50
2018-07-14T18:36:41.243Z,55.00
2018-07-14T18:39:09.628Z,55.90
2018-07-14T18:41:37.904Z,56.70
2018-07-14T18:44:06.204Z,57.10
2018-07-14T18:46:34.439Z,57.80
2018-07-14T18:49:02.738Z,58.60
2018-07-14T18:51:30.976Z,58.70
2018-07-14T18:53:59.380Z,57.40
2018-07-14T18:56:27.684Z,59.20
2018-07-14T19:01:24.855Z,59.00
2018-07-14T19:06:21.429Z,58.30
2018-07-14T19:08:49.733Z,60.20
2018-07-14T19:11:18.118Z,61.00
2018-07-14T19:13:46.507Z,62.60
2018-07-14T19:16:14.747Z,61.90
2018-07-14T19:18:43.039Z,61.70
2018-07-14T19:21:11.681Z,62.10
2018-07-14T19:23:40.954Z,63.20
2018-07-14T19:26:09.663Z,64.10
2018-07-14T19:28:37.837Z,63.70
2018-07-14T19:31:06.101Z,63.10
2018-07-14T19:33:34.677Z,63.70
2018-07-14T19:36:03.006Z,65.50
2018-07-14T19:38:31.235Z,64.60
2018-07-14T19:40:59.542Z,66.60
2018-07-14T19:43:27.757Z,67.60
2018-07-14T19:45:55.993Z,67.80
2018-07-14T19:48:24.222Z,70.20
2018-07-14T19:50:52.979Z,69.10
2018-07-14T19:53:21.518Z,71.40
2018-07-14T19:58:18.057Z,73.60
2018-07-14T20:00:46.634Z,74.00
2018-07-14T20:03:15.489Z,74.20
2018-07-14T20:05:44.127Z,75.30
2018-07-14T20:10:40.414Z,78.50
2018-07-14T20:13:08.772Z,80.00
2018-07-14T20:15:36.967Z,79.70
2018-07-14T20:18:06.303Z,78.60
2018-07-14T20:20:34.583Z,79.80
2018-07-14T20:23:02.839Z,79.40
2018-07-14T20:25:31.455Z,81.50
2018-07-14T20:27:59.751Z,81.50
2018-07-14T20:30:28.062Z,81.30
2018-07-14T20:32:56.430Z,82.60
2018-07-14T20:35:24.743Z,82.60
2018-07-14T20:37:53.592Z,83.20
2018-07-14T20:40:21.824Z,82.80
2018-07-14T20:42:50.051Z,84.80
2018-07-14T20:45:18.419Z,86.30
2018-07-14T20:47:46.701Z,87.20
2018-07-14T20:50:14.987Z,87.40
2018-07-14T20:52:43.231Z,87.50
2018-07-14T20:55:11.561Z,88.30
2018-07-14T20:57:39.820Z,87.80
2018-07-14T21:00:08.058Z,88.50
2018-07-14T21:02:36.326Z,89.30
2018-07-14T21:07:32.571Z,89.80
2018-07-14T21:12:28.890Z,90.80
2018-07-14T21:14:57.180Z,90.90
2018-07-14T21:17:26.427Z,91.20
2018-07-14T21:19:55.172Z,91.30
2018-07-14T21:22:23.455Z,91.50
2018-07-14T21:27:19.724Z,92.60
2018-07-14T21:29:48.002Z,92.60
2018-07-14T21:32:16.315Z,93.10
2018-07-14T21:34:44.561Z,93.80
2018-07-14T21:37:12.874Z,93.60
2018-07-14T21:39:41.163Z,94.30
2018-07-14T21:42:09.416Z,93.70
2018-07-14T21:44:37.707Z,93.70
2018-07-14T21:47:05.977Z,93.90
2018-07-14T21:49:34.259Z,94.10
2018-07-14T21:52:09.215Z,95.50
2018-07-14T21:57:05.563Z,95.50
2018-07-14T21:59:33.907Z,95.00
2018-07-14T22:02:06.157Z,95.90
2018-07-14T22:04:35.346Z,95.70
2018-07-14T22:07:03.651Z,95.90
2018-07-14T22:09:32.131Z,96.20
2018-07-14T22:12:00.478Z,95.70
2018-07-14T22:14:28.691Z,95.70
2018-07-14T22:16:56.961Z,96.80
2018-07-14T22:19:25.267Z,96.80
2018-07-14T22:21:53.531Z,97.70
2018-07-14T22:26:50.029Z,97.90
2018-07-14T22:29:18.338Z,98.00
2018-07-14T22:31:46.564Z,99.50
2018-07-14T22:34:15.028Z,99.80
2018-07-14T22:36:43.366Z,99.90
2018-07-14T22:39:11.593Z,99.90
2018-07-14T22:41:43.832Z,99.90
2018-07-14T22:44:12.102Z,99.90
2018-07-14T22:46:40.951Z,99.90
2018-07-14T22:49:09.222Z,99.90
2018-07-14T22:51:37.473Z,99.90
2018-07-14T22:54:05.780Z,99.90
2018-07-14T22:56:34.000Z,99.90
2018-07-14T22:59:02.230Z,99.90
2018-07-14T23:01:30.488Z,99.90
2018-07-14T23:03:58.779Z,99.90
2018-07-14T23:06:27.032Z,99.90
2018-07-14T23:08:55.238Z,99.90
2018-07-14T23:11:23.462Z,99.90
2018-07-14T23:13:51.864Z,99.90
2018-07-14T23:16:20.116Z,99.90
2018-07-14T23:18:48.473Z,99.90
2018-07-14T23:21:16.743Z,99.90
2018-07-14T23:23:45.073Z,99.90
2018-07-14T23:26:13.375Z,99.90
2018-07-14T23:28:41.645Z,99.90
2018-07-14T23:31:09.918Z,99.90
2018-07-14T23:33:38.190Z,99.90
2018-07-14T23:36:06.772Z,99.90
2018-07-14T23:38:35.182Z,99.90
2018-07-14T23:41:03.547Z,99.90
2018-07-14T23:43:31.789Z,99.90
2018-07-14T23:46:00.074Z,99.90
2018-07-14T23:48:28.342Z,99.90
2018-07-14T23:50:56.595Z,99.90
2018-07-14T23:53:24.854Z,99.90
2018-07-14T23:55:53.193Z,99.90
2018-07-14T23:58:21.462Z,99.90
